createdAt,value
2022-08-25T00:00:57.002Z,24.93
2022-08-25T00:05:58.270Z,24.82
2022-08-25T00:11:03.600Z,24.72
2022-08-25T00:16:03.049Z,24.46
2022-08-25T00:21:02.430Z,24.33
2022-08-25T00:26:02.139Z,24.40
2022-08-25T00:31:01.682Z,24.31
2022-08-25T00:36:00.489Z,24.41
2022-08-25T00:41:08.471Z,24.29
2022-08-25T00:46:10.858Z,24.34
2022-08-25T00:51:19.015Z,24.50
2022-08-25T00:56:18.396Z,24.40
2022-08-25T01:01:19.040Z,24.36
2022-08-25T01:06:17.647Z,24.42
2022-08-25T01:11:17.140Z,24.43
2022-08-25T01:16:16.332Z,24.40
2022-08-25T01:21:20.944Z,24.30
2022-08-25T01:26:25.100Z,24.18
2022-08-25T01:31:33.961Z,24.17
2022-08-25T01:36:33.283Z,24.04
2022-08-25T01:41:34.024Z,24.24
2022-08-25T01:46:36.646Z,24.06
2022-08-25T01:51:39.466Z,24.26
2022-08-25T01:56:38.266Z,23.94
2022-08-25T02:01:37.050Z,23.85
2022-08-25T02:06:36.653Z,23.82
2022-08-25T02:11:37.588Z,23.74
2022-08-25T02:16:40.909Z,23.13
2022-08-25T02:21:42.917Z,23.29
2022-08-25T02:26:42.208Z,23.44
2022-08-25T02:31:44.413Z,23.46
2022-08-25T02:36:44.007Z,23.32
2022-08-25T02:41:48.011Z,23.41
2022-08-25T02:46:47.730Z,23.76
2022-08-25T02:51:49.026Z,23.63
2022-08-25T02:56:51.298Z,23.36
2022-08-25T03:01:50.589Z,23.23
2022-08-25T03:06:49.982Z,23.15
2022-08-25T03:11:52.262Z,23.17
2022-08-25T03:16:52.016Z,23.39
2022-08-25T03:21:55.515Z,23.38
2022-08-25T03:26:56.958Z,23.21
2022-08-25T03:32:00.264Z,23.07
2022-08-25T03:36:59.152Z,23.30
2022-08-25T03:41:56.543Z,23.27
2022-08-25T03:46:55.150Z,23.40
2022-08-25T03:51:53.877Z,23.39
2022-08-25T03:56:55.407Z,23.17
2022-08-25T04:01:56.720Z,23.10
2022-08-25T04:06:55.794Z,23.01
2022-08-25T04:11:58.620Z,23.08
2022-08-25T04:16:56.588Z,23.00
2022-08-25T04:21:56.874Z,23.06
2022-08-25T04:26:56.608Z,23.29
2022-08-25T04:31:56.770Z,23.26
2022-08-25T04:36:57.826Z,23.29
2022-08-25T04:41:56.693Z,23.25
2022-08-25T04:46:55.008Z,23.30
2022-08-25T04:51:53.893Z,23.56
2022-08-25T04:56:58.710Z,23.39
2022-08-25T05:01:58.845Z,23.50
2022-08-25T05:06:58.273Z,23.48
2022-08-25T05:11:57.697Z,23.58
2022-08-25T05:16:59.421Z,23.64
2022-08-25T05:21:58.568Z,23.54
2022-08-25T05:27:00.454Z,23.86
2022-08-25T05:31:59.388Z,24.00
2022-08-25T05:37:00.647Z,23.96
2022-08-25T05:41:59.622Z,23.91
2022-08-25T05:46:59.080Z,24.01
2022-08-25T05:51:56.696Z,24.12
2022-08-25T05:56:58.827Z,24.24
2022-08-25T06:02:21.189Z,23.98
2022-08-25T06:07:22.099Z,24.21
2022-08-25T06:12:22.526Z,24.33
2022-08-25T06:17:22.656Z,24.39
2022-08-25T06:22:21.547Z,24.74
2022-08-25T06:27:22.329Z,25.24
2022-08-25T06:32:22.983Z,25.66
2022-08-25T06:37:25.205Z,25.61
2022-08-25T06:42:24.004Z,25.33
2022-08-25T06:47:25.782Z,26.03
2022-08-25T06:52:29.474Z,25.77
2022-08-25T06:57:28.355Z,26.03
2022-08-25T07:02:30.591Z,25.82
2022-08-25T07:07:43.061Z,25.71
2022-08-25T07:12:43.908Z,26.01
2022-08-25T07:17:45.568Z,26.34
2022-08-25T07:22:45.603Z,26.41
2022-08-25T07:27:46.973Z,26.52
2022-08-25T07:32:45.799Z,26.42
2022-08-25T07:37:58.758Z,26.63
2022-08-25T07:43:07.027Z,26.84
2022-08-25T07:48:09.351Z,27.14
2022-08-25T07:53:07.139Z,27.10
2022-08-25T07:58:10.121Z,27.33
2022-08-25T08:03:19.677Z,27.32
2022-08-25T08:08:30.353Z,27.58
2022-08-25T08:13:39.204Z,27.54
2022-08-25T08:18:44.820Z,27.98
2022-08-25T08:23:45.357Z,27.90
2022-08-25T08:28:52.122Z,28.13
2022-08-25T08:33:55.227Z,28.20
2022-08-25T08:38:53.859Z,27.98
2022-08-25T08:44:00.447Z,28.45
2022-08-25T08:49:08.298Z,28.45
2022-08-25T08:54:15.086Z,28.72
2022-08-25T08:59:20.859Z,29.02
2022-08-25T09:04:28.268Z,28.91
2022-08-25T09:09:30.592Z,28.95
2022-08-25T09:14:53.842Z,29.40
2022-08-25T09:20:18.179Z,29.53
2022-08-25T09:25:52.464Z,29.58
2022-08-25T09:31:05.998Z,29.46
2022-08-25T09:36:09.194Z,29.56
2022-08-25T09:41:11.518Z,29.77
2022-08-25T09:46:27.156Z,29.75
2022-08-25T09:51:38.008Z,29.65
2022-08-25T09:56:54.818Z,30.28
2022-08-25T10:01:57.348Z,30.26
2022-08-25T10:06:56.368Z,30.25
2022-08-25T10:12:06.241Z,30.36
2022-08-25T10:17:17.368Z,30.56
2022-08-25T10:22:33.697Z,30.42
2022-08-25T10:28:09.563Z,30.77
2022-08-25T10:33:17.518Z,30.87
2022-08-25T10:38:52.886Z,31.13
2022-08-25T10:44:03.933Z,31.42
2022-08-25T10:49:28.906Z,31.34
2022-08-25T10:54:51.107Z,31.65
2022-08-25T11:00:15.477Z,31.65
2022-08-25T11:05:33.335Z,31.61
2022-08-25T11:10:55.216Z,31.86
2022-08-25T11:16:17.210Z,31.85
2022-08-25T11:21:24.781Z,31.78
2022-08-25T11:26:36.817Z,32.16
2022-08-25T11:31:56.188Z,32.06
2022-08-25T11:37:31.493Z,32.21
2022-08-25T11:42:36.438Z,32.57
2022-08-25T11:47:51.751Z,32.58
2022-08-25T11:52:56.841Z,32.51
2022-08-25T11:58:30.701Z,32.71
2022-08-25T12:03:39.120Z,32.62
2022-08-25T12:08:57.532Z,33.13
2022-08-25T12:14:43.187Z,33.07
2022-08-25T12:19:48.264Z,33.50
2022-08-25T12:25:09.226Z,33.16
2022-08-25T12:30:28.868Z,33.51
2022-08-25T12:35:53.661Z,33.63
2022-08-25T12:41:16.854Z,33.77
2022-08-25T12:46:36.130Z,33.47
2022-08-25T12:51:48.469Z,33.44
2022-08-25T12:56:54.879Z,33.27
2022-08-25T13:01:57.645Z,33.32
2022-08-25T13:07:35.924Z,33.53
2022-08-25T13:12:47.227Z,33.46
2022-08-25T13:17:46.478Z,33.70
2022-08-25T13:22:57.224Z,34.18
2022-08-25T13:28:04.779Z,35.14
2022-08-25T13:33:26.333Z,35.47
2022-08-25T13:38:27.460Z,35.44
2022-08-25T13:43:29.774Z,35.94
2022-08-25T13:48:49.347Z,35.86
2022-08-25T13:53:52.836Z,35.64
2022-08-25T13:58:57.447Z,35.90
2022-08-25T14:04:21.552Z,36.32
2022-08-25T14:09:28.294Z,35.87
2022-08-25T14:14:30.716Z,35.77
2022-08-25T14:19:36.952Z,36.13
2022-08-25T14:24:40.997Z,36.55
2022-08-25T14:29:41.019Z,36.69
2022-08-25T14:34:44.845Z,35.54
2022-08-25T14:39:47.136Z,35.83
2022-08-25T14:44:47.586Z,35.52
2022-08-25T14:49:50.184Z,35.10
2022-08-25T14:54:51.066Z,34.49
2022-08-25T14:59:52.880Z,34.73
2022-08-25T15:05:06.869Z,34.61
2022-08-25T15:10:13.936Z,34.53
2022-08-25T15:15:36.033Z,34.44
2022-08-25T15:20:42.983Z,34.38
2022-08-25T15:25:52.941Z,34.02
2022-08-25T15:31:12.488Z,34.03
2022-08-25T15:36:20.657Z,34.04
2022-08-25T15:41:30.140Z,34.08
2022-08-25T15:46:30.819Z,34.08
2022-08-25T15:51:34.362Z,33.96
2022-08-25T15:56:34.248Z,33.67
2022-08-25T16:01:35.720Z,33.53
2022-08-25T16:06:37.257Z,33.76
2022-08-25T16:11:56.678Z,33.49
2022-08-25T16:17:03.727Z,33.33
2022-08-25T16:22:24.455Z,32.66
2022-08-25T16:27:27.148Z,32.75
2022-08-25T16:33:03.588Z,32.51
2022-08-25T16:38:07.272Z,32.43
2022-08-25T16:43:09.745Z,32.24
2022-08-25T16:48:18.357Z,31.88
2022-08-25T16:53:43.159Z,31.80
2022-08-25T16:59:10.631Z,31.56
2022-08-25T17:04:16.385Z,31.19
2022-08-25T17:09:30.931Z,31.26
2022-08-25T17:14:33.486Z,31.14
2022-08-25T17:19:35.802Z,30.90
2022-08-25T17:25:00.958Z,30.96
2022-08-25T17:30:05.495Z,30.89
2022-08-25T17:35:14.140Z,30.44
2022-08-25T17:40:19.912Z,29.96
2022-08-25T17:45:29.361Z,29.88
2022-08-25T17:50:36.455Z,29.61
2022-08-25T17:55:42.276Z,29.43
2022-08-25T18:01:23.217Z,29.30
2022-08-25T18:06:32.838Z,29.38
2022-08-25T18:11:48.975Z,29.41
2022-08-25T18:17:15.925Z,29.31
2022-08-25T18:28:28.245Z,29.09
2022-08-25T18:33:30.295Z,29.01
2022-08-25T18:38:59.843Z,28.89
2022-08-25T18:44:19.023Z,28.80
2022-08-25T18:49:22.177Z,28.99
2022-08-25T18:54:27.210Z,28.79
2022-08-25T18:59:30.784Z,28.93
2022-08-25T19:04:46.034Z,28.58
2022-08-25T19:09:50.962Z,28.52
2022-08-25T19:14:55.524Z,28.36
2022-08-25T19:20:11.207Z,28.49
2022-08-25T19:25:11.912Z,28.53
2022-08-25T19:30:13.074Z,28.56
2022-08-25T19:35:43.752Z,28.33
2022-08-25T19:41:10.705Z,28.11
2022-08-25T19:46:32.858Z,28.33
2022-08-25T19:51:40.367Z,28.34
2022-08-25T19:56:43.851Z,28.25
2022-08-25T20:01:55.857Z,27.97
2022-08-25T20:06:55.736Z,27.97
2022-08-25T20:11:55.055Z,27.84
2022-08-25T20:17:01.139Z,27.88
2022-08-25T20:22:00.640Z,27.80
2022-08-25T20:27:02.909Z,27.89
2022-08-25T20:32:06.459Z,27.85
2022-08-25T20:37:08.119Z,28.04
2022-08-25T20:42:10.217Z,27.83
2022-08-25T20:47:12.889Z,27.83
2022-08-25T20:52:20.478Z,27.63
2022-08-25T20:57:29.510Z,27.63
2022-08-25T21:02:32.576Z,27.52
2022-08-25T21:07:36.593Z,27.82
2022-08-25T21:12:53.379Z,27.89
2022-08-25T21:17:55.692Z,27.36
2022-08-25T21:23:03.156Z,26.95
2022-08-25T21:28:08.741Z,26.61
2022-08-25T21:33:08.885Z,26.92
2022-08-25T21:38:13.327Z,26.86
2022-08-25T21:43:31.849Z,26.36
2022-08-25T21:48:33.757Z,26.40
2022-08-25T21:53:33.754Z,26.02
2022-08-25T22:03:51.692Z,25.85
2022-08-25T22:08:55.107Z,26.30
2022-08-25T22:14:03.995Z,26.27
2022-08-25T22:19:17.531Z,26.26
2022-08-25T22:24:19.126Z,26.14
2022-08-25T22:29:25.990Z,26.08
2022-08-25T22:34:32.112Z,26.35
2022-08-25T22:39:36.529Z,26.09
2022-08-25T22:44:39.828Z,26.08
2022-08-25T22:49:42.627Z,25.91
2022-08-25T22:54:44.772Z,25.77
2022-08-25T22:59:45.257Z,25.64
2022-08-25T23:04:45.636Z,26.10
2022-08-25T23:09:52.284Z,25.97
2022-08-25T23:14:54.910Z,25.82
2022-08-25T23:20:19.738Z,25.90
2022-08-25T23:25:27.881Z,25.71
2022-08-25T23:30:33.162Z,26.12
2022-08-25T23:35:39.173Z,26.29
2022-08-25T23:40:44.171Z,26.27
2022-08-25T23:45:45.545Z,26.15
2022-08-25T23:50:47.209Z,25.86
2022-08-25T23:55:56.038Z,25.97
